Time;durP1;ratioP1;P1;durP2;ratioP2;P2;SDS_P1;SDS_P2;PMS_P1;PMS_P2;Temp;Humidity;BMP_temperature;BMP_pressure;BME280_temperature;BME280_humidity;BME280_pressure;Samples;Min_cycle;Max_cycle;Signal;HPM_P1;HPM_P2
2022/04/10 00:00:07;;;;;;;5.47;2.63;;;;;;;7.02;50.99;99878.72;5416523;32;34535;-73
2022/04/10 00:03:10;;;;;;;6.57;2.10;;;;;;;7.24;50.09;99878.84;5409869;32;35432;-75
2022/04/10 00:06:16;;;;;;;4.40;1.97;;;;;;;7.14;50.57;99872.19;5398855;32;37506;-73
2022/04/10 00:09:18;;;;;;;3.53;1.80;;;;;;;7.28;50.58;99868.25;5422228;32;35852;-74
2022/04/10 00:12:20;;;;;;;4.60;2.03;;;;;;;7.02;50.67;99869.13;5390722;32;34294;-74
2022/04/10 00:15:22;;;;;;;4.43;2.10;;;;;;;7.29;50.43;99869.09;5403298;32;46245;-74
2022/04/10 00:18:25;;;;;;;4.40;2.30;;;;;;;7.32;50.50;99864.59;5390469;32;34611;-73
2022/04/10 00:21:27;;;;;;;4.10;1.90;;;;;;;6.90;51.70;99866.03;5402520;32;34033;-74
2022/04/10 00:24:29;;;;;;;4.03;1.77;;;;;;;6.90;51.51;99869.50;5396379;32;34130;-74
2022/04/10 00:27:31;;;;;;;4.50;1.80;;;;;;;7.17;50.78;99866.91;5407378;32;33987;-73
2022/04/10 00:30:34;;;;;;;3.83;1.93;;;;;;;6.57;52.25;99870.53;5416206;32;36010;-74
2022/04/10 00:33:36;;;;;;;3.07;1.83;;;;;;;6.63;52.26;99873.81;5406346;32;35374;-75
2022/04/10 00:36:38;;;;;;;3.13;1.90;;;;;;;7.30;50.70;99855.97;5403571;32;35681;-75
2022/04/10 00:39:41;;;;;;;5.17;2.23;;;;;;;7.24;50.52;99858.78;5411907;32;34409;-74
2022/04/10 00:42:48;;;;;;;4.57;1.67;;;;;;;6.84;51.40;99861.88;5393213;32;35437;-74
2022/04/10 00:45:50;;;;;;;3.03;1.43;;;;;;;7.11;51.16;99852.25;5419555;32;35691;-74
2022/04/10 00:48:52;;;;;;;3.03;1.90;;;;;;;6.63;52.02;99863.37;5394152;32;44478;-73
2022/04/10 00:51:55;;;;;;;3.40;1.70;;;;;;;7.23;50.93;99853.63;5411969;32;35747;-75
2022/04/10 00:54:57;;;;;;;4.60;1.70;;;;;;;7.22;50.52;99865.00;5396562;32;37040;-74
2022/04/10 00:58:00;;;;;;;2.97;1.77;;;;;;;7.70;50.07;99861.56;5391503;32;35714;-75
2022/04/10 01:01:02;;;;;;;4.13;2.10;;;;;;;6.64;52.38;99878.16;5407758;32;35208;-74
2022/04/10 01:04:06;;;;;;;4.50;1.80;;;;;;;6.67;52.71;99882.44;5385875;32;33943;-73
2022/04/10 01:07:11;;;;;;;7.10;1.80;;;;;;;6.99;51.83;99879.66;5400820;32;36312;-74
2022/04/10 01:10:14;;;;;;;3.40;1.73;;;;;;;6.52;53.21;99902.03;5394371;32;35533;-74
2022/04/10 01:13:16;;;;;;;3.20;1.90;;;;;;;6.47;53.66;99904.78;5415157;32;34140;-74
2022/04/10 01:16:18;;;;;;;2.70;1.77;;;;;;;7.30;51.55;99899.56;5405711;32;35706;-74
2022/04/10 01:19:21;;;;;;;3.50;1.90;;;;;;;6.75;53.17;99907.41;5413725;32;46064;-74
2022/04/10 01:22:29;;;;;;;4.30;2.10;;;;;;;6.55;53.99;99903.69;5399173;32;43035;-73
2022/04/10 01:25:31;;;;;;;5.40;2.20;;;;;;;6.65;53.41;99913.81;5396678;32;35265;-74
2022/04/10 01:28:33;;;;;;;4.53;2.53;;;;;;;6.29;54.78;99923.59;5411660;32;35404;-74
2022/04/10 01:31:44;;;;;;;3.77;2.00;;;;;;;6.10;55.41;99920.66;5416194;32;34046;-73
2022/04/10 01:34:47;;;;;;;3.73;1.90;;;;;;;6.06;55.69;99921.66;5402033;32;35630;-74
2022/04/10 01:37:49;;;;;;;5.37;2.50;;;;;;;6.31;55.60;99932.25;5402860;32;34954;-74
2022/04/10 01:40:51;;;;;;;5.73;2.50;;;;;;;6.61;54.68;99927.88;5402091;32;44293;-73
2022/04/10 01:43:55;;;;;;;4.83;2.17;;;;;;;6.20;55.56;99924.72;5406420;32;35398;-75
2022/04/10 01:46:57;;;;;;;4.32;2.53;;;;;;;6.32;55.74;99936.56;5392926;32;34726;-74
2022/04/10 01:49:59;;;;;;;6.03;2.43;;;;;;;5.94;57.11;99938.50;5405584;32;32497;-74
2022/04/10 01:53:05;;;;;;;5.20;2.60;;;;;;;5.84;57.62;99936.97;5407815;32;34293;-73
2022/04/10 01:56:08;;;;;;;5.63;2.60;;;;;;;5.87;57.58;99942.13;5397757;32;34255;-74
2022/04/10 01:59:10;;;;;;;5.67;2.90;;;;;;;5.82;58.38;99944.00;5391194;32;34168;-74
2022/04/10 02:02:12;;;;;;;4.43;2.30;;;;;;;5.93;57.75;99936.78;5407925;32;34355;-75
2022/04/10 02:05:14;;;;;;;4.40;2.40;;;;;;;5.63;58.50;99951.44;5413175;32;36895;-74
2022/04/10 02:08:16;;;;;;;4.43;2.67;;;;;;;5.41;59.36;99951.16;5399675;32;35803;-74
2022/04/10 02:11:20;;;;;;;4.50;2.50;;;;;;;6.03;57.45;99947.81;5410561;32;34108;-74
2022/04/10 02:14:22;;;;;;;;;;;;;;;5.87;58.09;99951.72;5386927;32;42251;-75
2022/04/10 02:17:24;;;;;;;5.63;2.60;;;;;;;5.13;60.65;99958.75;5420273;32;35391;-74
2022/04/10 02:20:27;;;;;;;5.37;2.47;;;;;;;5.54;59.34;99956.03;5399471;32;35475;-73
2022/04/10 02:23:30;;;;;;;5.72;3.12;;;;;;;5.97;58.32;99956.66;5402344;32;34854;-74
2022/04/10 02:26:32;;;;;;;4.60;2.60;;;;;;;6.09;57.54;99963.28;5421113;32;34080;-73
2022/04/10 02:29:34;;;;;;;5.83;2.77;;;;;;;5.68;59.08;99975.66;5398903;32;35344;-74
2022/04/10 02:32:36;;;;;;;6.67;2.90;;;;;;;5.36;59.93;99976.47;5405967;32;36509;-75
2022/04/10 02:35:40;;;;;;;6.53;3.10;;;;;;;5.14;60.79;99970.03;5406935;32;34122;-74
2022/04/10 02:38:43;;;;;;;5.18;2.62;;;;;;;5.29;60.16;99981.88;5403264;32;35379;-73
2022/04/10 02:41:45;;;;;;;6.55;3.30;;;;;;;5.16;60.83;99983.91;5404383;32;35610;-74
2022/04/10 02:44:47;;;;;;;6.87;3.10;;;;;;;5.24;61.10;99989.78;5412717;32;34090;-74
2022/04/10 02:47:49;;;;;;;5.10;2.87;;;;;;;4.96;61.90;99994.78;5412140;32;34090;-74
2022/04/10 02:50:52;;;;;;;5.70;3.07;;;;;;;4.59;63.35;99999.91;5396728;32;45110;-73
2022/04/10 02:53:54;;;;;;;4.43;2.77;;;;;;;5.37;61.48;99993.81;5411692;32;35341;-74
2022/04/10 02:56:56;;;;;;;7.93;3.10;;;;;;;5.22;61.62;100004.59;5365302;32;35720;-75
2022/04/10 02:59:58;;;;;;;5.63;3.33;;;;;;;5.46;60.00;100004.91;5413318;32;35325;-74
2022/04/10 03:03:00;;;;;;;9.40;3.10;;;;;;;4.72;62.80;99998.78;5407955;32;35327;-74
2022/04/10 03:06:03;;;;;;;5.60;3.13;;;;;;;5.11;61.61;99994.44;5406263;32;35324;-74
2022/04/10 03:09:05;;;;;;;7.20;2.90;;;;;;;4.87;62.02;100003.63;5415955;32;35501;-73
2022/04/10 03:12:08;;;;;;;5.33;2.97;;;;;;;5.21;60.93;99999.41;5398994;32;37555;-74
2022/04/10 03:15:10;;;;;;;5.77;3.10;;;;;;;5.30;60.28;99997.47;5424438;32;35217;-73
2022/04/10 03:18:12;;;;;;;6.53;3.03;;;;;;;4.81;61.66;100006.37;5399784;32;34108;-73
2022/04/10 03:21:14;;;;;;;6.33;2.97;;;;;;;4.94;60.78;100013.91;5418380;32;34965;-73
2022/04/10 03:24:17;;;;;;;8.10;3.00;;;;;;;5.40;59.67;100006.75;5390932;32;35413;-74
2022/04/10 03:27:19;;;;;;;5.63;3.10;;;;;;;5.36;59.35;100018.16;5395256;32;35932;-74
2022/04/10 03:30:21;;;;;;;7.10;2.90;;;;;;;5.21;59.69;100023.72;5415159;32;43377;-74
2022/04/10 03:33:23;;;;;;;6.97;2.63;;;;;;;5.47;59.02;100030.06;5391379;32;35699;-74
2022/04/10 03:36:25;;;;;;;8.33;2.97;;;;;;;5.68;58.76;100038.25;5411009;32;35446;-74
2022/04/10 03:39:27;;;;;;;6.47;3.00;;;;;;;5.12;59.92;100039.56;5404253;32;34239;-74
2022/04/10 03:42:37;;;;;;;5.70;3.03;;;;;;;5.18;60.39;100038.56;5383142;32;35206;-73
2022/04/10 03:45:40;;;;;;;7.07;2.83;;;;;;;5.21;60.29;100044.56;5411088;32;36808;-74
2022/04/10 03:48:42;;;;;;;5.70;2.97;;;;;;;4.65;61.33;100048.41;5411201;32;34244;-74
2022/04/10 03:51:44;;;;;;;7.80;3.50;;;;;;;4.94;61.13;100045.16;5413158;32;35214;-74
2022/04/10 03:54:46;;;;;;;6.77;3.03;;;;;;;4.98;60.91;100045.09;5410479;32;35640;-74
2022/04/10 03:57:49;;;;;;;7.13;3.47;;;;;;;4.57;62.40;100052.00;5367674;32;33489;-75
2022/04/10 04:00:51;;;;;;;7.50;3.40;;;;;;;4.61;62.41;100061.47;5405364;32;35105;-74
2022/04/10 04:03:53;;;;;;;6.47;3.13;;;;;;;4.70;62.55;100055.22;5411934;32;34366;-75
2022/04/10 04:06:56;;;;;;;10.30;3.80;;;;;;;4.86;62.34;100061.81;5403282;32;173650;-73
2022/04/10 04:09:58;;;;;;;7.43;3.53;;;;;;;5.26;61.00;100063.56;5400504;32;34171;-73
2022/04/10 04:13:00;;;;;;;8.43;3.53;;;;;;;5.08;61.77;100061.34;5406294;32;34088;-74
2022/04/10 04:16:02;;;;;;;7.73;3.60;;;;;;;5.04;61.52;100059.72;5402443;32;35327;-73
2022/04/10 04:19:05;;;;;;;7.07;3.80;;;;;;;5.07;61.17;100070.06;5421917;32;34217;-73
2022/04/10 04:22:07;;;;;;;6.57;3.50;;;;;;;5.19;60.91;100069.78;5390750;32;34313;-72
2022/04/10 04:25:09;;;;;;;7.77;3.80;;;;;;;5.11;61.53;100071.72;5403706;32;34128;-73
2022/04/10 04:28:12;;;;;;;7.33;3.67;;;;;;;4.59;63.88;100076.25;5400157;32;35192;-74
2022/04/10 04:31:14;;;;;;;7.77;3.97;;;;;;;4.59;63.66;100080.59;5406000;32;35418;-75
2022/04/10 04:34:16;;;;;;;9.13;3.80;;;;;;;4.88;62.41;100083.47;5424190;32;35455;-74
2022/04/10 04:37:18;;;;;;;8.30;4.03;;;;;;;4.87;62.64;100092.16;5397580;32;36174;-75
2022/04/10 04:40:21;;;;;;;7.70;3.83;;;;;;;4.71;63.75;100082.97;5408107;32;32143;-75
2022/04/10 04:43:23;;;;;;;7.47;3.90;;;;;;;4.75;63.07;100088.97;5404605;32;46005;-74
2022/04/10 04:46:25;;;;;;;9.00;4.10;;;;;;;4.42;64.37;100104.34;5408182;32;34175;-74
2022/04/10 04:49:27;;;;;;;7.63;3.67;;;;;;;4.44;64.29;100092.16;5423001;32;34420;-73
2022/04/10 04:52:33;;;;;;;8.63;3.83;;;;;;;4.47;64.14;100099.91;5399617;32;35294;-74
2022/04/10 04:55:35;;;;;;;8.33;4.20;;;;;;;4.56;64.71;100099.72;5396732;32;34167;-74
2022/04/10 04:58:37;;;;;;;7.63;3.87;;;;;;;4.58;64.81;100105.78;5396724;32;34584;-74
2022/04/10 05:01:41;;;;;;;6.47;3.70;;;;;;;5.61;60.99;100108.81;5415247;32;35238;-74
2022/04/10 05:04:43;;;;;;;9.32;4.78;;;;;;;4.93;62.88;100111.16;5399684;32;35250;-74
2022/04/10 05:07:45;;;;;;;8.63;4.30;;;;;;;5.19;61.91;100113.22;5411505;32;37436;-74
2022/04/10 05:10:47;;;;;;;6.37;3.60;;;;;;;5.74;60.61;100120.69;5424217;32;35795;-73
2022/04/10 05:13:49;;;;;;;6.77;3.70;;;;;;;6.68;57.44;100129.63;5413730;32;34068;-75
2022/04/10 05:16:52;;;;;;;6.77;3.63;;;;;;;6.73;57.21;100132.97;5410513;32;44645;-75
2022/04/10 05:19:54;;;;;;;7.73;3.90;;;;;;;6.44;56.96;100134.63;5387487;32;37070;-73
2022/04/10 05:22:56;;;;;;;8.17;3.83;;;;;;;6.26;56.77;100142.91;5420615;32;34135;-74
2022/04/10 05:25:59;;;;;;;7.20;3.80;;;;;;;7.33;55.03;100127.72;5398885;32;34370;-73
2022/04/10 05:29:01;;;;;;;5.90;3.30;;;;;;;6.62;57.18;100135.00;5412162;32;34220;-75
2022/04/10 05:32:03;;;;;;;9.10;4.00;;;;;;;6.81;56.33;100137.97;5425348;32;34276;-73
2022/04/10 05:35:06;;;;;;;8.00;3.33;;;;;;;7.05;55.97;100146.00;5405388;32;34019;-74
2022/04/10 05:38:08;;;;;;;7.77;4.00;;;;;;;7.59;54.03;100149.63;5430460;32;38601;-74
2022/04/10 05:41:10;;;;;;;5.67;3.30;;;;;;;8.04;52.65;100149.09;5416125;32;34285;-73
2022/04/10 05:44:12;;;;;;;8.97;3.90;;;;;;;7.55;53.91;100155.87;5425702;32;37572;-74
2022/04/10 05:47:15;;;;;;;7.80;3.47;;;;;;;7.05;55.19;100160.81;5411367;32;34666;-74
2022/04/10 05:50:17;;;;;;;7.03;3.43;;;;;;;7.54;53.76;100160.25;5404954;32;35920;-74
2022/04/10 05:53:19;;;;;;;6.40;3.53;;;;;;;8.02;52.62;100164.84;5429950;32;36129;-73
2022/04/10 05:56:21;;;;;;;8.63;4.43;;;;;;;8.57;50.98;100175.31;5382730;32;36603;-74
2022/04/10 05:59:23;;;;;;;5.33;3.17;;;;;;;9.02;48.74;100159.72;5397285;32;35674;-73
2022/04/10 06:02:26;;;;;;;9.33;3.57;;;;;;;9.40;48.49;100173.16;5398085;32;34097;-74
2022/04/10 06:05:28;;;;;;;5.53;3.00;;;;;;;8.88;49.54;100175.06;5407245;32;36246;-75
2022/04/10 06:08:30;;;;;;;6.87;2.97;;;;;;;10.17;46.05;100171.88;5397600;32;34037;-75
2022/04/10 06:11:34;;;;;;;5.67;3.10;;;;;;;9.86;46.81;100169.66;5402569;32;36338;-74
2022/04/10 06:14:36;;;;;;;6.22;3.40;;;;;;;9.10;48.20;100180.41;5386963;32;34085;-75
2022/04/10 06:17:38;;;;;;;7.77;4.03;;;;;;;10.64;44.87;100171.72;5407676;32;35723;-73
2022/04/10 06:20:40;;;;;;;4.53;3.00;;;;;;;10.89;42.86;100166.25;5407891;32;34342;-73
2022/04/10 06:23:43;;;;;;;4.47;2.90;;;;;;;11.59;42.18;100168.31;5406483;32;36169;-76
2022/04/10 06:26:48;;;;;;;6.67;3.20;;;;;;;10.70;43.77;100176.72;5418904;32;35439;-74
2022/04/10 06:29:51;;;;;;;5.43;3.00;;;;;;;10.03;44.68;100185.56;5398600;32;38117;-74
2022/04/10 06:32:53;;;;;;;4.73;3.07;;;;;;;10.08;45.07;100184.53;5386837;32;35458;-75
2022/04/10 06:35:55;;;;;;;4.97;3.10;;;;;;;11.02;42.51;100177.94;5419273;32;34114;-74
2022/04/10 06:38:58;;;;;;;8.27;3.20;;;;;;;10.55;43.79;100175.56;5387071;32;35363;-75
2022/04/10 06:42:00;;;;;;;5.27;2.97;;;;;;;11.39;42.02;100189.41;5420578;32;35340;-76
2022/04/10 06:45:03;;;;;;;5.23;2.90;;;;;;;11.78;41.83;100188.50;5395355;32;34164;-73
2022/04/10 06:48:06;;;;;;;5.18;2.90;;;;;;;12.79;39.17;100189.69;5414486;32;35301;-74
2022/04/10 06:51:08;;;;;;;5.00;2.85;;;;;;;11.62;40.72;100197.13;5411349;32;35279;-75
2022/04/10 06:54:10;;;;;;;6.00;3.03;;;;;;;12.08;40.55;100199.41;5410231;32;35410;-75
2022/04/10 06:57:12;;;;;;;6.70;2.90;;;;;;;13.09;38.46;100203.09;5386748;32;35138;-75
2022/04/10 07:00:15;;;;;;;5.30;3.20;;;;;;;14.04;36.68;100195.31;5400125;32;35243;-75
2022/04/10 07:03:17;;;;;;;5.43;3.00;;;;;;;12.56;38.29;100213.72;5421233;32;35191;-73
2022/04/10 07:06:20;;;;;;;5.03;2.87;;;;;;;12.34;39.50;100209.53;5404542;32;34808;-74
2022/04/10 07:09:22;;;;;;;6.75;3.03;;;;;;;11.28;41.71;100218.03;5414931;32;44617;-76
2022/04/10 07:12:30;;;;;;;8.27;2.77;;;;;;;11.69;39.96;100213.50;5411961;32;35427;-73
2022/04/10 07:15:32;;;;;;;7.07;2.90;;;;;;;11.61;40.01;100219.13;5411866;32;34052;-75
2022/04/10 07:18:34;;;;;;;5.30;2.70;;;;;;;11.74;39.74;100216.78;5414732;32;36390;-73
2022/04/10 07:24:59;;;;;;;5.60;2.70;;;;;;;12.05;39.05;100223.25;5392665;32;44513;-75
2022/04/10 07:28:01;;;;;;;5.67;2.63;;;;;;;11.55;40.15;100224.66;5399220;32;34943;-74
2022/04/10 07:31:05;;;;;;;5.40;2.97;;;;;;;12.63;38.31;100230.97;5397578;32;34143;-75
2022/04/10 07:34:07;;;;;;;7.03;3.07;;;;;;;11.26;41.45;100230.37;5412190;32;33907;-74
2022/04/10 07:37:09;;;;;;;4.07;2.60;;;;;;;12.58;38.80;100232.97;5396467;32;34259;-73
2022/04/10 07:40:12;;;;;;;6.17;2.77;;;;;;;11.26;41.00;100240.87;5414364;32;34163;-74
2022/04/10 07:43:14;;;;;;;5.10;2.70;;;;;;;12.97;38.11;100232.75;5405893;32;34149;-73
2022/04/10 07:49:38;;;;;;;6.37;2.80;;;;;;;12.85;37.89;100236.84;5420070;32;35067;-75
2022/04/10 07:52:40;;;;;;;5.78;2.47;;;;;;;14.39;35.42;100225.03;5407554;32;34459;-76
2022/04/10 07:55:43;;;;;;;4.23;2.40;;;;;;;13.88;36.01;100234.94;5401035;32;34028;-75
2022/04/10 07:58:45;;;;;;;4.57;2.47;;;;;;;15.82;32.29;100228.78;5380087;32;34228;-74
2022/04/10 08:01:47;;;;;;;4.55;2.22;;;;;;;15.59;33.00;100237.28;5422490;32;33053;-76
2022/04/10 08:04:49;;;;;;;3.55;2.28;;;;;;;14.33;32.85;100252.66;5391981;32;33288;-74
2022/04/10 08:07:51;;;;;;;4.50;2.47;;;;;;;15.82;31.14;100243.81;5408495;32;47051;-75
2022/04/10 08:10:54;;;;;;;2.87;2.30;;;;;;;16.02;31.15;100243.41;5414857;32;35457;-74
2022/04/10 08:13:56;;;;;;;5.87;2.35;;;;;;;14.18;33.25;100255.31;5407050;32;35197;-74
2022/04/10 08:16:59;;;;;;;4.37;2.03;;;;;;;15.10;31.87;100259.66;5421362;32;33974;-76
2022/04/10 08:20:04;;;;;;;5.57;2.60;;;;;;;13.15;34.83;100262.59;5407816;32;35513;-73
2022/04/10 08:23:06;;;;;;;3.80;1.90;;;;;;;13.77;33.61;100255.78;5409624;32;35110;-74
2022/04/10 08:26:08;;;;;;;4.07;2.10;;;;;;;12.48;36.20;100270.31;5392293;32;34135;-74
2022/04/10 08:29:11;;;;;;;4.57;2.10;;;;;;;14.35;32.33;100260.50;5378654;32;35433;-73
2022/04/10 08:32:13;;;;;;;3.37;1.90;;;;;;;14.30;31.39;100262.56;5420223;32;34563;-73
2022/04/10 08:35:16;;;;;;;4.70;2.00;;;;;;;14.02;32.24;100266.72;5398653;32;34443;-72
2022/04/10 08:38:18;;;;;;;4.57;2.15;;;;;;;15.17;30.50;100266.28;5420540;32;35839;-74
2022/04/10 08:41:21;;;;;;;3.97;1.77;;;;;;;14.81;30.55;100268.47;5408665;32;35038;-75
2022/04/10 08:44:24;;;;;;;5.10;2.13;;;;;;;14.68;31.41;100268.31;5424009;32;45728;-73
2022/04/10 08:47:26;;;;;;;;;;;;;;;15.77;30.20;100261.81;5394799;32;35207;-76
2022/04/10 08:50:29;;;;;;;10.30;5.50;;;;;;;15.60;30.91;100268.13;5412647;32;34485;-74
2022/04/10 08:53:32;;;;;;;6.90;2.83;;;;;;;14.90;32.71;100270.59;5422925;32;34898;-74
2022/04/10 08:56:34;;;;;;;4.83;2.60;;;;;;;15.03;32.17;100270.72;5376861;32;34569;-74
2022/04/10 08:59:37;;;;;;;3.70;2.33;;;;;;;14.90;32.29;100279.38;5420177;32;34622;-73
2022/04/10 09:02:51;;;;;;;4.60;2.65;;;;;;;15.45;30.52;100254.00;5404867;32;34601;-74
2022/04/10 09:06:04;;;;;;;3.80;2.30;;;;;;;17.12;29.15;100270.63;5398619;32;45226;-73
2022/04/10 09:09:13;;;;;;;6.12;2.97;;;;;;;15.30;30.90;100276.16;5403964;32;34838;-75
2022/04/10 09:12:17;;;;;;;3.83;2.30;;;;;;;17.66;27.65;100258.97;5398342;32;34783;-76
2022/04/10 09:15:20;;;;;;;4.03;2.33;;;;;;;15.96;29.70;100265.00;5407194;32;34600;-74
2022/04/10 09:18:22;;;;;;;6.78;2.28;;;;;;;14.87;30.72;100276.03;5402909;32;44598;-75
2022/04/10 09:21:29;;;;;;;4.27;2.27;;;;;;;15.30;31.24;100273.50;5405107;32;34768;-76
2022/04/10 09:24:32;;;;;;;3.80;1.90;;;;;;;15.41;30.47;100274.56;5386895;32;33985;-73
2022/04/10 09:27:36;;;;;;;3.63;2.07;;;;;;;16.47;28.52;100266.09;5405909;32;34999;-75
2022/04/10 09:30:38;;;;;;;5.40;2.10;;;;;;;14.32;31.48;100276.53;5410946;32;35563;-75
2022/04/10 09:33:49;;;;;;;3.40;2.10;;;;;;;16.04;29.50;100262.72;5405410;32;35430;-74
2022/04/10 09:37:03;;;;;;;5.07;2.27;;;;;;;15.59;29.70;100269.94;5410531;32;44574;-75
2022/04/10 09:40:23;;;;;;;4.23;2.13;;;;;;;14.76;31.99;100279.31;5378980;32;34663;-75
2022/04/10 09:43:28;;;;;;;2.97;2.00;;;;;;;14.37;31.36;100277.16;5396351;32;44374;-74
2022/04/10 09:46:31;;;;;;;2.67;2.17;;;;;;;15.33;30.79;100278.63;5425338;32;33758;-74
2022/04/10 09:49:36;;;;;;;4.30;2.00;;;;;;;14.55;30.95;100281.41;5410789;32;34504;-74
2022/04/10 09:52:38;;;;;;;4.80;2.00;;;;;;;14.57;31.57;100284.81;5421764;32;34859;-74
2022/04/10 09:55:42;;;;;;;3.73;2.00;;;;;;;14.76;31.10;100281.13;5401555;32;34082;-75
2022/04/10 09:58:45;;;;;;;5.23;3.20;;;;;;;14.88;30.86;100286.56;5380488;32;34670;-76
2022/04/10 10:01:47;;;;;;;;;;;;;;;15.49;29.27;100284.69;5394227;32;34724;-75
2022/04/10 10:04:50;;;;;;;4.67;2.10;;;;;;;15.78;28.53;100276.75;5408657;32;35019;-74
2022/04/10 10:07:52;;;;;;;3.62;2.08;;;;;;;16.23;28.05;100286.28;5407888;32;46075;-75
2022/04/10 10:10:56;;;;;;;5.03;2.17;;;;;;;16.44;28.08;100284.03;5395817;32;34165;-73
2022/04/10 10:13:59;;;;;;;3.30;1.77;;;;;;;15.95;27.80;100271.25;5407713;32;35062;-73
2022/04/10 10:17:04;;;;;;;2.67;1.70;;;;;;;15.79;28.28;100291.72;5382412;32;35519;-74
2022/04/10 10:20:08;;;;;;;3.07;1.80;;;;;;;16.18;27.40;100275.09;5405979;32;34426;-73
2022/04/10 10:23:12;;;;;;;4.43;1.87;;;;;;;15.88;27.64;100273.44;5407895;32;35024;-76
2022/04/10 10:26:43;;;;;;;4.17;1.70;;;;;;;16.47;27.06;100270.56;5392404;32;34816;-74
2022/04/10 10:30:10;;;;;;;3.20;1.70;;;;;;;15.48;28.95;100277.69;5427345;32;36434;-75
2022/04/10 10:33:16;;;;;;;4.90;1.70;;;;;;;16.84;26.33;100276.12;5405790;32;34827;-76
2022/04/10 10:36:26;;;;;;;4.03;1.60;;;;;;;15.29;27.49;100280.59;5414170;32;34992;-75
2022/04/10 10:39:33;;;;;;;3.07;1.70;;;;;;;15.64;27.30;100285.56;5410158;32;44467;-74
2022/04/10 10:42:39;;;;;;;3.03;1.90;;;;;;;14.27;29.90;100282.06;5406130;32;34635;-74
2022/04/10 10:45:42;;;;;;;3.33;1.67;;;;;;;15.21;28.94;100292.59;5402503;32;34746;-74
2022/04/10 10:49:18;;;;;;;5.23;2.07;;;;;;;15.13;28.45;100290.38;5405579;32;44509;-74
2022/04/10 10:52:21;;;;;;;2.73;1.60;;;;;;;14.82;29.19;100288.72;5400290;32;34851;-75
2022/04/10 10:55:25;;;;;;;3.78;1.85;;;;;;;15.54;28.20;100277.31;5407183;32;44968;-74
2022/04/10 10:58:31;;;;;;;4.97;1.77;;;;;;;14.62;29.39;100274.84;5399671;32;34967;-73
2022/04/10 11:01:34;;;;;;;3.80;1.80;;;;;;;14.12;30.46;100280.31;5422057;32;35428;-75
2022/04/10 11:04:42;;;;;;;2.95;2.00;;;;;;;14.07;30.45;100280.53;5394097;32;34965;-75
2022/04/10 11:07:56;;;;;;;4.60;2.03;;;;;;;14.14;30.57;100285.50;5415812;32;34800;-74
2022/04/10 11:11:01;;;;;;;3.33;1.70;;;;;;;13.52;31.48;100283.53;5397815;32;43275;-74
2022/04/10 11:14:03;;;;;;;3.07;1.80;;;;;;;14.04;31.31;100277.25;5387726;32;35120;-74
2022/04/10 11:17:20;;;;;;;3.20;1.70;;;;;;;14.16;30.72;100259.81;5408277;32;35013;-74
2022/04/10 11:20:24;;;;;;;4.67;2.23;;;;;;;15.29;28.83;100272.66;5392099;32;44547;-75
2022/04/10 11:23:39;;;;;;;3.37;1.83;;;;;;;15.23;29.04;100269.50;5399983;32;34366;-73
2022/04/10 11:26:43;;;;;;;3.30;1.83;;;;;;;15.80;29.44;100265.13;5409304;32;35093;-74
2022/04/10 11:29:55;;;;;;;4.83;2.03;;;;;;;13.78;31.84;100265.41;5399643;32;34954;-76
2022/04/10 11:32:57;;;;;;;3.63;2.10;;;;;;;14.50;30.37;100275.53;5391675;32;44476;-74
2022/04/10 11:35:59;;;;;;;4.07;2.03;;;;;;;15.41;29.15;100273.72;5412432;32;34661;-75
2022/04/10 11:39:08;;;;;;;3.08;1.83;;;;;;;14.79;29.21;100271.19;5401742;32;34868;-75
2022/04/10 11:42:12;;;;;;;3.50;1.83;;;;;;;15.03;29.05;100258.31;5403200;32;34841;-74
2022/04/10 11:45:14;;;;;;;4.28;1.40;;;;;;;15.50;28.03;100262.53;5402658;32;36319;-75
2022/04/10 11:48:17;;;;;;;2.40;1.40;;;;;;;14.27;28.52;100260.94;5416949;32;34665;-74
2022/04/10 11:51:19;;;;;;;2.37;1.50;;;;;;;13.71;29.70;100253.47;5398417;32;34202;-75
2022/04/10 11:54:24;;;;;;;3.90;1.87;;;;;;;14.75;28.32;100268.81;5425286;32;43360;-75
2022/04/10 11:57:26;;;;;;;2.53;1.50;;;;;;;14.69;27.39;100263.91;5359556;32;35334;-75
2022/04/10 12:00:28;;;;;;;2.40;1.47;;;;;;;14.48;27.63;100261.53;5429276;32;34023;-74
2022/04/10 12:03:31;;;;;;;2.63;1.50;;;;;;;13.92;29.07;100265.53;5393450;32;34536;-74
2022/04/10 12:06:33;;;;;;;4.30;1.30;;;;;;;15.13;27.40;100255.97;5394290;32;34968;-76
2022/04/10 12:09:35;;;;;;;3.57;1.40;;;;;;;16.00;25.91;100263.87;5402090;32;34914;-76
2022/04/10 12:12:37;;;;;;;2.80;1.50;;;;;;;14.00;29.06;100265.13;5406368;32;34412;-75
2022/04/10 12:15:39;;;;;;;2.47;1.40;;;;;;;16.55;25.12;100255.00;5392482;32;36014;-75
2022/04/10 12:18:51;;;;;;;3.00;1.33;;;;;;;18.49;22.00;100252.06;5405389;32;35021;-74
2022/04/10 12:21:53;;;;;;;2.47;1.40;;;;;;;17.68;22.66;100263.22;5402614;32;45963;-75
2022/04/10 12:24:57;;;;;;;2.97;1.43;;;;;;;16.07;25.32;100257.22;5405893;32;35368;-74
2022/04/10 12:27:59;;;;;;;5.90;1.63;;;;;;;18.92;21.73;100244.37;5391298;32;36968;-75
2022/04/10 12:31:02;;;;;;;3.00;1.35;;;;;;;16.18;24.71;100269.81;5407162;32;35469;-75
2022/04/10 12:34:04;;;;;;;2.87;1.40;;;;;;;15.69;25.86;100268.44;5408370;32;33975;-74
2022/04/10 12:37:12;;;;;;;2.58;1.27;;;;;;;15.86;25.36;100262.09;5404697;32;35362;-75
2022/04/10 12:40:26;;;;;;;2.10;1.40;;;;;;;16.72;23.89;100273.31;5390472;32;35064;-74
2022/04/10 12:43:32;;;;;;;4.23;1.40;;;;;;;17.75;21.94;100259.19;5404679;32;44333;-75
2022/04/10 12:46:38;;;;;;;1.37;1.27;;;;;;;17.03;22.36;100273.94;5380359;32;35393;-75
2022/04/10 12:49:40;;;;;;;2.47;1.30;;;;;;;16.75;22.96;100259.03;5381366;32;34458;-75
2022/04/10 12:52:44;;;;;;;2.23;1.30;;;;;;;16.89;21.44;100266.91;5409143;32;35970;-75
2022/04/10 12:55:46;;;;;;;2.47;1.20;;;;;;;14.87;23.90;100276.03;5395209;32;35381;-75
2022/04/10 12:58:50;;;;;;;3.17;1.23;;;;;;;17.56;21.26;100258.75;5413838;32;34895;-74
2022/04/10 13:01:53;;;;;;;2.63;1.23;;;;;;;16.19;22.50;100263.53;5375778;32;45483;-74
2022/04/10 13:05:00;;;;;;;1.10;1.00;;;;;;;16.93;21.74;100275.50;5404472;32;35613;-75
2022/04/10 13:08:03;;;;;;;1.87;1.10;;;;;;;15.35;23.82;100276.72;5416563;32;34233;-74
2022/04/10 13:11:09;;;;;;;2.50;1.37;;;;;;;14.56;25.38;100277.00;5402885;32;35146;-74
2022/04/10 13:14:32;;;;;;;1.80;1.10;;;;;;;13.63;26.92;100269.75;5409934;32;44468;-74
2022/04/10 13:17:38;;;;;;;1.97;1.23;;;;;;;13.75;27.19;100279.66;5400257;32;35159;-75
2022/04/10 13:20:40;;;;;;;5.20;1.40;;;;;;;13.28;27.97;100276.91;5386356;32;35280;-75
2022/04/10 13:23:43;;;;;;;3.42;1.50;;;;;;;12.87;28.37;100282.44;5424867;32;35593;-74
2022/04/10 13:26:46;;;;;;;2.10;1.40;;;;;;;12.83;28.84;100283.56;5386356;32;34739;-74
2022/04/10 13:29:48;;;;;;;2.33;1.40;;;;;;;12.09;29.94;100286.25;5425723;32;34923;-76
2022/04/10 13:32:50;;;;;;;3.97;1.67;;;;;;;11.91;30.31;100282.72;5388042;32;35820;-74
2022/04/10 13:35:52;;;;;;;3.77;1.50;;;;;;;12.00;29.39;100288.47;5410018;32;45072;-76
2022/04/10 13:38:54;;;;;;;3.97;1.40;;;;;;;12.24;28.31;100276.78;5373025;32;34681;-75
2022/04/10 13:41:57;;;;;;;2.40;1.27;;;;;;;11.67;30.45;100296.97;5402673;32;34489;-74
2022/04/10 13:45:00;;;;;;;2.70;1.33;;;;;;;12.60;29.60;100294.37;5414171;32;34426;-76
2022/04/10 13:48:03;;;;;;;2.70;1.50;;;;;;;12.73;29.42;100298.97;5401618;32;35338;-76
2022/04/10 13:51:05;;;;;;;3.07;1.73;;;;;;;12.09;30.71;100304.69;5407871;32;35634;-74
2022/04/10 13:54:07;;;;;;;1.53;1.20;;;;;;;12.80;29.96;100296.03;5394965;32;35221;-76
2022/04/10 13:57:09;;;;;;;2.63;1.50;;;;;;;12.36;30.64;100291.13;5379168;32;34761;-75
2022/04/10 14:00:12;;;;;;;1.60;1.40;;;;;;;11.79;31.21;100306.94;5395767;32;35478;-75
2022/04/10 14:03:14;;;;;;;1.75;1.20;;;;;;;11.93;29.78;100307.19;5385059;32;34647;-75
2022/04/10 14:06:17;;;;;;;1.73;1.40;;;;;;;12.04;28.48;100305.81;5376424;32;35140;-76
2022/04/10 14:09:19;;;;;;;3.20;1.80;;;;;;;12.26;26.95;100293.38;5389889;32;35720;-74
2022/04/10 14:12:23;;;;;;;2.87;1.83;;;;;;;11.54;29.39;100303.69;5396922;32;43184;-75
2022/04/10 14:15:25;;;;;;;2.47;1.60;;;;;;;12.59;29.17;100296.16;5360398;32;35135;-76
2022/04/10 14:18:27;;;;;;;2.67;1.80;;;;;;;12.82;29.34;100299.47;5413689;32;34680;-74
2022/04/10 14:21:30;;;;;;;4.50;2.30;;;;;;;12.97;29.49;100301.31;5404059;32;35045;-74
2022/04/10 14:24:32;;;;;;;4.43;2.05;;;;;;;12.58;29.92;100312.91;5410453;32;34744;-75
2022/04/10 14:27:34;;;;;;;3.20;1.70;;;;;;;12.22;30.94;100315.50;5422732;32;34738;-76